Latest Weather Observations for Murganella Airstrip

IDD60801

Issued at 5:01 am CST Saturday 31 January 2015 (issued every 30 minutes, with the page automatically refreshed every 10 minutes)

About weather observations | Map of weather stations | Latest weather observations for NT | Other Formats
Station Details ID: 014309 Name: MURGANELLA AIRSTRIP Lat: -11.55 Lon: 132.93 Height: 9.5 m
Data from the previous 72 hours. | See also: Recent months for locations in Northern Territory
Date/Time
CST
Temp
°C
App
Temp
°C
Dew
Point
Rel
Hum
%
Delta-T
°C
Wind Press
QNH
hPa
Press
MSL
hPa
Rain
since 9 am
mm
Dir
 
Spd
km/h
Gust
km/h
Spd
kts
Gust
kts
31/05:00am 24.6 30.8 24.6 100 0.0 CALM 0 2 0 1 1007.6 1007.5 5.6
31/04:30am 24.6 30.8 24.6 100 0.0 CALM 0 0 0 0 1007.6 1007.5 5.6
31/04:00am 24.9 31.3 24.9 100 0.0 CALM 0 0 0 0 1007.5 1007.4 5.6
31/03:30am 25.1 30.3 25.1 100 0.0 WSW 7 17 4 9 1007.8 1007.7 4.6
31/03:00am 25.3 31.6 25.3 100 0.0 WSW 2 4 1 2 1007.6 1007.5 3.4
31/02:30am 25.1 31.6 25.1 100 0.0 CALM 0 0 0 0 1007.8 1007.7 3.4
31/02:00am 25.1 31.6 25.1 100 0.0 CALM 0 0 0 0 1008.0 1007.9 3.4
31/01:30am 25.3 31.6 25.3 100 0.0 WNW 2 4 1 2 1008.4 1008.3 3.4
31/01:00am 25.2 31.8 25.2 100 0.0 CALM 0 0 0 0 1008.5 1008.4 3.4
31/12:30am 25.6 32.4 25.6 100 0.0 CALM 0 0 0 0 1008.7 1008.6 3.4
31/12:00am 25.8 32.8 25.8 100 0.0 CALM 0 0 0 0 1009.2 1009.1 3.4
 
Date/Time
CST
Temp
°C
App
Temp
°C
Dew
Point
Rel
Hum
%
Delta-T
°C
Wind Press
QNH
hPa
Press
MSL
hPa
Rain
since 9 am
mm
Dir
 
Spd
km/h
Gust
km/h
Spd
kts
Gust
kts
30/11:30pm 26.0 33.1 26.0 100 0.0 CALM 0 0 0 0 1009.7 1009.6 3.4
30/11:00pm 26.1 33.3 26.1 100 0.0 CALM 0 0 0 0 1009.9 1009.8 3.4
30/10:30pm 26.4 33.8 26.4 100 0.0 CALM 0 0 0 0 1009.8 1009.7 3.4
30/10:00pm 26.5 33.9 26.5 100 0.0 CALM 0 0 0 0 1009.5 1009.4 3.4
30/09:30pm 26.5 33.9 26.5 100 0.0 CALM 0 0 0 0 1009.2 1009.1 3.4
30/09:00pm 26.6 34.1 26.6 100 0.0 CALM 0 0 0 0 1009.0 1008.9 3.4
30/08:30pm 26.6 34.1 26.6 100 0.0 CALM 0 0 0 0 1008.4 1008.3 3.4
30/08:00pm 27.0 34.8 27.0 100 0.0 CALM 0 0 0 0 1008.0 1007.9 3.4
30/07:30pm 27.4 35.4 27.4 100 0.0 CALM 0 2 0 1 1007.4 1007.3 3.4
30/07:00pm 27.8 35.4 27.8 100 0.0 NW 4 6 2 3 1006.9 1006.8 3.4
30/06:30pm 28.2 35.7 28.2 100 0.0 NW 6 7 3 4 1006.9 1006.8 3.4
30/06:00pm 28.8 36.7 28.8 100 0.0 WNW 6 9 3 5 1006.9 1006.8 3.4
30/05:30pm 28.7 36.6 28.7 100 0.0 WNW 6 11 3 6 1006.7 1006.6 3.4
30/05:00pm 28.6 35.8 28.1 97 0.4 WNW 7 13 4 7 1006.1 1006.0 3.4
30/04:30pm 28.4 35.2 27.2 93 0.9 NW 6 11 3 6 1005.8 1005.7 3.4
30/04:00pm 27.9 34.0 27.0 95 0.6 NW 9 15 5 8 1005.8 1005.7 3.4
30/03:30pm 27.8 34.6 27.5 98 0.2 WNW 7 13 4 7 1006.3 1006.2 3.4
30/03:00pm 27.5 34.5 27.5 100 0.0 NNW 6 11 3 6 1006.4 1006.3 3.4
30/02:30pm 27.0 33.4 27.0 100 0.0 NW 7 17 4 9 1006.9 1006.8 3.4
30/02:00pm 26.2 33.0 26.2 100 0.0 N 2 6 1 3 1007.3 1007.2 3.4
30/01:30pm 25.6 32.1 25.6 100 0.0 NW 2 7 1 4 1008.0 1007.9 3.4
30/01:00pm 25.4 29.6 25.4 100 0.0 NW 13 20 7 11 1008.3 1008.2 2.8
30/12:30pm 29.8 37.3 28.2 91 1.2 NNW 6 11 3 6 1008.0 1007.9 0.2
30/12:00pm 29.8 37.3 28.5 93 1.0 WNW 7 13 4 7 1008.1 1008.0 0.0
30/11:30am 31.4 37.7 27.3 79 3.0 W 9 20 5 11 1008.3 1008.2 0.0
30/11:00am 31.3 37.6 27.9 82 2.5 WNW 11 20 6 11 1008.6 1008.5 0.0
30/10:30am 29.9 36.2 27.9 89 1.5 WNW 11 19 6 10 1008.7 1008.6 0.0
30/10:00am 29.7 36.5 28.1 91 1.2 WNW 9 15 5 8 1008.8 1008.7 0.0
30/09:30am 29.6 36.9 28.7 95 0.7 NW 9 15 5 8 1008.4 1008.3 0.0
30/09:00am 29.4 37.6 29.4 100 0.0 WNW 7 13 4 7 1008.1 1008.0 60.8
30/08:30am 28.4 36.0 28.4 100 0.0 WNW 6 9 3 5 1007.9 1007.8 60.6
30/08:00am 26.7 34.3 26.7 100 0.0 CALM 0 0 0 0 1007.7 1007.6 60.6
30/07:30am 25.3 31.9 25.3 100 0.0 CALM 0 0 0 0 1007.8 1007.7 60.6
30/07:00am 24.9 31.3 24.9 100 0.0 CALM 0 0 0 0 1007.4 1007.3 60.6
30/06:30am 24.8 31.1 24.8 100 0.0 CALM 0 0 0 0 1007.4 1007.3 60.6
30/06:00am 25.1 31.6 25.1 100 0.0 CALM 0 0 0 0 1007.0 1006.9 60.6
30/05:30am 25.2 31.8 25.2 100 0.0 CALM 0 0 0 0 1006.7 1006.6 60.6
30/05:00am 25.6 32.4 25.6 100 0.0 CALM 0 0 0 0 1006.7 1006.6 60.6
30/04:30am 26.0 33.1 26.0 100 0.0 CALM 0 2 0 1 1006.4 1006.3 60.6
30/04:00am 26.3 33.6 26.3 100 0.0 CALM 0 2 0 1 1006.4 1006.3 60.6
30/03:30am 26.5 33.2 26.5 100 0.0 NW 4 6 2 3 1006.3 1006.2 60.6
30/03:00am 26.9 33.5 26.9 100 0.0 WNW 6 9 3 5 1006.3 1006.2 60.6
30/02:30am 27.1 33.8 27.1 100 0.0 W 6 13 3 7 1006.5 1006.4 60.6
30/02:00am 26.6 34.1 26.6 100 0.0 CALM 0 0 0 0 1006.7 1006.6 60.6
30/01:30am 26.8 34.4 26.8 100 0.0 CALM 0 2 0 1 1007.1 1007.0 60.6
30/01:00am 26.9 33.8 26.9 100 0.0 WNW 4 6 2 3 1007.7 1007.6 60.6
30/12:30am 26.3 33.2 26.3 100 0.0 WNW 2 4 1 2 1008.1 1008.0 60.6
30/12:00am 25.4 31.7 25.4 100 0.0 NW 2 4 1 2 1008.3 1008.2 60.6
 
Date/Time
CST
Temp
°C
App
Temp
°C
Dew
Point
Rel
Hum
%
Delta-T
°C
Wind Press
QNH
hPa
Press
MSL
hPa
Rain
since 9 am
mm
Dir
 
Spd
km/h
Gust
km/h
Spd
kts
Gust
kts
29/11:30pm 25.3 31.9 25.3 100 0.0 CALM 0 0 0 0 1008.6 1008.5 60.6
29/11:00pm 25.2 31.8 25.2 100 0.0 CALM 0 2 0 1 1008.8 1008.7 60.6
29/10:30pm 25.5 32.3 25.5 100 0.0 CALM 0 0 0 0 1008.7 1008.6 60.6
29/10:00pm 24.9 31.3 24.9 100 0.0 CALM 0 0 0 0 1008.4 1008.3 60.6
29/09:30pm 25.1 31.6 25.1 100 0.0 CALM 0 0 0 0 1008.0 1007.9 60.6
29/09:00pm 25.1 31.6 25.1 100 0.0 CALM 0 0 0 0 1007.5 1007.4 60.6
29/08:30pm 25.1 31.2 25.1 100 0.0 N 2 4 1 2 1007.0 1006.9 60.6
29/08:00pm 25.3 31.9 25.3 100 0.0 CALM 0 0 0 0 1006.8 1006.7 60.6
29/07:30pm 25.6 32.4 25.6 100 0.0 CALM 0 0 0 0 1006.3 1006.2 60.6
29/07:00pm 25.9 32.9 25.9 100 0.0 CALM 0 0 0 0 1006.1 1006.0 60.6
29/06:30pm 26.5 32.8 26.5 100 0.0 ESE 6 11 3 6 1005.6 1005.5 60.6
29/06:00pm 27.4 35.4 27.4 100 0.0 CALM 0 0 0 0 1004.9 1004.8 60.6
29/05:30pm 26.1 32.5 26.1 100 0.0 WNW 4 6 2 3 1004.5 1004.4 60.6
29/05:00pm 23.9 27.2 23.9 100 0.0 SSW 13 24 7 13 1004.8 1004.7 60.6
29/04:30pm 24.0 24.5 24.0 100 0.0 SSE 28 44 15 24 1004.8 1004.7 59.0
29/04:29pm 24.0 24.1 24.0 100 0.0 SSE 30 48 16 26 1004.8 1004.7 58.4
29/04:00pm 25.0 26.9 25.0 100 0.0 NE 24 48 13 26 1005.4 1005.3 33.4
29/03:51pm 23.2 23.3 23.2 100 0.0 NNE 28 48 15 26 1005.0 1004.9 20.6
29/03:39pm 27.0 28.9 22.0 74 3.4 NNE 15 28 8 15 1004.2 1004.1 0.4
29/03:30pm 32.2 37.4 24.8 65 5.2 SSW 6 13 3 7 1004.0 1003.9 0.0
29/03:00pm 33.4 38.4 24.8 60 6.1 SE 7 13 4 7 1003.8 1003.7 0.0
29/02:30pm 33.0 37.7 25.0 63 5.7 SSE 9 20 5 11 1004.2 1004.1 0.0
29/02:00pm 33.3 39.1 26.6 68 4.8 S 9 15 5 8 1004.4 1004.3 0.0
29/01:30pm 33.2 37.8 24.1 59 6.4 W 7 11 4 6 1004.7 1004.6 0.0
29/01:00pm 32.6 37.3 23.3 58 6.4 N 4 6 2 3 1005.1 1005.0 0.0
29/12:30pm 32.4 37.2 24.2 62 5.7 WSW 6 11 3 6 1005.8 1005.7 0.0
29/12:00pm 31.7 36.4 24.0 63 5.4 W 6 9 3 5 1006.3 1006.2 0.0
29/11:30am 31.2 37.5 26.5 76 3.4 NW 6 9 3 5 1006.7 1006.6 0.0
29/11:00am 30.3 36.4 26.2 79 2.9 NW 6 11 3 6 1007.2 1007.1 0.0
29/10:30am 29.2 34.3 25.6 81 2.5 NW 9 15 5 8 1007.3 1007.2 0.0
29/10:00am 28.5 34.8 27.3 93 0.9 NNW 9 15 5 8 1007.5 1007.4 0.0
29/09:30am 27.8 34.7 26.9 95 0.6 NNW 4 7 2 4 1007.3 1007.2 0.0
29/09:00am 27.2 34.6 27.0 99 0.1 NW 2 6 1 3 1007.0 1006.9 0.0
29/08:30am 26.7 33.5 26.7 100 0.0 WNW 4 6 2 3 1006.7 1006.6 0.0
29/08:00am 25.6 31.3 25.6 100 0.0 NW 6 9 3 5 1006.4 1006.3 0.0
29/07:30am 24.6 30.1 24.6 100 0.0 NNW 4 6 2 3 1005.9 1005.8 0.0
29/07:00am 24.2 30.2 24.2 100 0.0 CALM 0 2 0 1 1005.3 1005.2 0.0
29/06:30am 24.1 29.6 24.1 100 0.0 SSE 2 2 1 1 1005.2 1005.1 0.0
29/06:00am 24.1 30.0 24.1 100 0.0 CALM 0 0 0 0 1005.1 1005.0 0.0
29/05:30am 24.0 29.8 24.0 100 0.0 CALM 0 0 0 0 1005.0 1004.9 0.0
29/05:00am 24.2 30.2 24.2 100 0.0 CALM 0 0 0 0 1005.3 1005.2 0.0
29/04:30am 24.2 30.2 24.2 100 0.0 CALM 0 0 0 0 1005.2 1005.1 0.0
29/04:00am 24.1 29.2 24.1 100 0.0 S 4 4 2 2 1005.3 1005.2 0.0
29/03:30am 24.2 29.0 24.2 100 0.0 S 6 7 3 4 1005.7 1005.6 0.0
29/03:00am 24.3 29.6 24.3 100 0.0 SSE 4 7 2 4 1006.0 1005.9 0.0
29/02:30am 24.3 29.6 24.3 100 0.0 S 4 6 2 3 1006.3 1006.2 0.0
29/02:00am 24.2 29.4 24.2 100 0.0 SSE 4 7 2 4 1006.4 1006.3 0.0
29/01:30am 24.3 29.9 24.3 100 0.0 SW 2 2 1 1 1006.9 1006.8 0.0
29/01:00am 24.4 29.3 24.4 100 0.0 S 6 9 3 5 1007.1 1007.0 0.0
29/12:30am 24.5 29.3 24.5 100 0.0 SSE 7 9 4 5 1007.5 1007.4 0.0
29/12:00am 24.6 29.7 24.6 100 0.0 SE 6 11 3 6 1007.8 1007.7 0.0
 
Date/Time
CST
Temp
°C
App
Temp
°C
Dew
Point
Rel
Hum
%
Delta-T
°C
Wind Press
QNH
hPa
Press
MSL
hPa
Rain
since 9 am
mm
Dir
 
Spd
km/h
Gust
km/h
Spd
kts
Gust
kts
28/11:30pm 24.6 29.5 24.6 100 0.0 SE 7 11 4 6 1008.2 1008.1 0.0
28/11:00pm 24.5 29.9 24.5 100 0.0 ESE 4 7 2 4 1008.0 1007.9 0.0
28/10:30pm 24.7 30.6 24.7 100 0.0 SSE 2 4 1 2 1007.2 1007.1 0.0
28/10:00pm 24.8 30.4 24.8 100 0.0 SW 4 6 2 3 1006.9 1006.8 0.0
28/09:30pm 24.8 30.4 24.8 100 0.0 SSW 4 6 2 3 1006.8 1006.7 0.0
28/09:00pm 25.1 30.5 25.1 100 0.0 WSW 6 7 3 4 1006.6 1006.5 0.0
28/08:30pm 24.6 30.1 24.6 100 0.0 W 4 7 2 4 1006.1 1006.0 0.0
28/08:00pm 24.2 29.8 24.2 100 0.0 SW 2 6 1 3 1005.3 1005.2 0.0
28/07:30pm 24.5 29.8 24.3 99 0.1 SSW 4 6 2 3 1005.4 1005.3 0.0
28/07:00pm 24.6 28.7 23.2 92 0.9 SSE 7 13 4 7 1005.1 1005.0 0.0
28/06:30pm 25.5 28.3 20.5 74 3.3 W 6 7 3 4 1004.0 1003.9 0.0
28/06:00pm 26.6 29.0 19.7 66 4.5 S 6 13 3 7 1003.6 1003.5 0.0
28/05:30pm 27.3 30.0 21.3 69 4.0 S 9 17 5 9 1003.3 1003.2 0.0
28/05:00pm 31.2 37.6 27.5 81 2.7 WNW 9 19 5 10 1002.4 1002.3 0.0
28/04:30pm 31.7 36.2 24.6 66 5.0 NW 9 17 5 9 1001.9 1001.8 0.0
28/04:00pm 32.5 37.1 24.8 64 5.4 NW 9 13 5 7 1001.6 1001.5 0.0
28/03:30pm 32.9 38.6 25.9 66 5.0 W 7 15 4 8 1001.8 1001.7 0.0
28/03:00pm 32.2 37.3 25.5 67 4.8 WNW 9 13 5 7 1002.6 1002.5 0.0
28/02:30pm 32.4 38.5 26.5 71 4.3 W 7 11 4 6 1003.2 1003.1 0.0
28/02:00pm 32.9 37.4 24.6 61 5.8 WSW 9 17 5 9 1003.6 1003.5 0.0
28/01:30pm 32.5 37.7 25.1 65 5.2 W 7 13 4 7 1003.8 1003.7 0.0
28/01:00pm 32.1 37.0 25.2 67 4.9 W 9 19 5 10 1004.2 1004.1 0.0
28/12:30pm 32.2 38.2 26.3 71 4.2 W 7 15 4 8 1004.6 1004.5 0.0
28/12:00pm 32.6 40.0 28.3 78 3.2 SW 7 13 4 7 1005.0 1004.9 0.0
28/11:30am 31.6 38.0 27.5 79 3.0 WSW 9 17 5 9 1005.3 1005.2 0.0
28/11:00am 30.6 37.6 27.0 81 2.6 WSW 4 9 2 5 1005.4 1005.3 0.0
28/10:30am 30.0 37.3 28.2 90 1.3 SW 7 11 4 6 1005.7 1005.6 0.0
28/10:00am 29.5 36.7 28.6 95 0.7 SW 9 15 5 8 1005.6 1005.5 0.0
28/09:30am 28.6 35.7 28.4 99 0.1 SSW 9 13 5 7 1005.5 1005.4 0.0
28/09:00am 28.0 35.1 28.0 100 0.0 SW 7 11 4 6 1005.8 1005.7 6.8
28/08:30am 27.1 33.6 27.1 100 0.0 SW 7 13 4 7 1005.6 1005.5 6.8
28/08:00am 26.4 32.6 26.4 100 0.0 S 6 9 3 5 1005.3 1005.2 6.8
28/07:30am 25.8 32.4 25.8 100 0.0 SSW 2 4 1 2 1005.0 1004.9 6.8
28/07:00am 25.1 31.6 25.1 100 0.0 CALM 0 2 0 1 1004.9 1004.8 6.8
28/06:30am 24.8 31.1 24.8 100 0.0 CALM 0 0 0 0 1004.5 1004.4 6.8
28/06:00am 25.0 31.5 25.0 100 0.0 CALM 0 2 0 1 1004.1 1004.0 6.8
28/05:30am 25.3 31.6 25.3 100 0.0 SSW 2 4 1 2 1003.7 1003.6 6.8

Other Formats:

Comma delimited format used in spreadsheet applications
http://www.bom.gov.au/fwo/IDD60801/IDD60801.94109.axf

JavaScript Object Notation format (JSON) in row-major order
http://www.bom.gov.au/fwo/IDD60801/IDD60801.94109.json